Terminal Aerodrome Forecast
Issued by NWS

Home | Current Version | Previous Version | Text Only | Print | Product List | Glossary On
Versions: 1 2 3 4 5 6 7 8 9 10 11 12 13
000
FTUS44 KJAN 180500
TAFGTR
TAF
KGTR 180526Z 1806/1906 12004KT P6SM VCSH OVC050
     FM180800 07009KT P6SM OVC035
     FM182100 06008KT P6SM OVC050
     FM190300 11003KT P6SM SCT100=

USA.gov is the U.S. government's official web portal to all federal, state and local government web resources and services.